Time;durP1;ratioP1;P1;durP2;ratioP2;P2;SDS_P1;SDS_P2;PMS_P1;PMS_P2;Temp;Humidity;BMP_temperature;BMP_pressure;BME280_temperature;BME280_humidity;BME280_pressure;Samples;Min_cycle;Max_cycle;Signal;HPM_P1;HPM_P2
2022/04/11 00:01:54;;;;;;;;;;;2.60;99.90;;;;;;5002774;28;19933;-67
2022/04/11 00:04:20;;;;;;;;;;;2.50;99.90;;;;;;5000887;28;19976;-66
2022/04/11 00:06:46;;;;;;;;;;;2.40;99.90;;;;;;5009755;28;19941;-66
2022/04/11 00:09:11;;;;;;;;;;;2.40;99.90;;;;;;5016803;28;20383;-67
2022/04/11 00:11:37;;;;;;;;;;;3.90;99.90;;;;;;5005208;28;19972;-67
2022/04/11 00:14:04;;;;;;;;;;;2.30;99.90;;;;;;4992923;28;19927;-68
2022/04/11 00:16:30;;;;;;;;;;;2.30;99.90;;;;;;5009277;28;19980;-67
2022/04/11 00:18:55;;;;;;;;;;;2.30;99.90;;;;;;4998525;28;20378;-66
2022/04/11 00:21:21;;;;;;;;;;;2.30;99.90;;;;;;5022657;28;19980;-67
2022/04/11 00:23:47;;;;;;;;;;;2.30;99.90;;;;;;5014704;28;19940;-66
2022/04/11 00:26:13;;;;;;;;;;;2.30;99.90;;;;;;5003929;28;20012;-66
2022/04/11 00:28:38;;;;;;;;;;;2.20;99.90;;;;;;5017041;28;20331;-67
2022/04/11 00:31:04;;;;;;;;;;;2.20;99.90;;;;;;5004800;28;19926;-66
2022/04/11 00:33:29;;;;;;;;;;;2.20;99.90;;;;;;5001686;28;19929;-67
2022/04/11 00:35:55;;;;;;;;;;;2.10;99.90;;;;;;4996478;28;19968;-66
2022/04/11 00:38:20;;;;;;;;;;;2.10;99.90;;;;;;4996661;28;19984;-66
2022/04/11 00:40:46;;;;;;;;;;;2.10;99.90;;;;;;5004006;28;20264;-68
2022/04/11 00:43:30;;;;;;;;;;;2.10;99.90;;;;;;5006393;28;20269;-68
2022/04/11 00:45:56;;;;;;;;;;;2.00;99.90;;;;;;4994943;28;20329;-67
2022/04/11 00:48:22;;;;;;;;;;;2.00;99.90;;;;;;5002055;28;20852;-67
2022/04/11 00:50:48;;;;;;;;;;;2.10;99.90;;;;;;5004783;28;19925;-66
2022/04/11 00:53:15;;;;;;;;;;;1.90;99.90;;;;;;4993032;28;19929;-66
2022/04/11 00:55:42;;;;;;;;;;;2.10;99.90;;;;;;5014981;28;19933;-67
2022/04/11 00:58:07;;;;;;;;;;;1.90;99.90;;;;;;5013122;28;19936;-68
2022/04/11 01:00:34;;;;;;;;;;;1.90;99.90;;;;;;5003462;28;19925;-67
2022/04/11 01:03:00;;;;;;;;;;;1.90;99.90;;;;;;5002618;28;19980;-67
2022/04/11 01:05:26;;;;;;;;;;;1.80;99.90;;;;;;5022121;28;19929;-67
2022/04/11 01:07:51;;;;;;;;;;;1.80;99.90;;;;;;4999744;28;19925;-67
2022/04/11 01:10:18;;;;;;;;;;;1.80;99.90;;;;;;5000484;28;19926;-67
2022/04/11 01:12:43;;;;;;;;;;;1.80;99.90;;;;;;4998221;28;21917;-66
2022/04/11 01:15:09;;;;;;;;;;;1.80;99.90;;;;;;5000128;28;19967;-67
2022/04/11 01:17:35;;;;;;;;;;;1.80;99.90;;;;;;4995020;28;20383;-66
2022/04/11 01:20:11;;;;;;;;;;;2.00;99.90;;;;;;4997455;28;19932;-67
2022/04/11 01:22:37;;;;;;;;;;;1.80;99.90;;;;;;5001372;28;19973;-67
2022/04/11 01:25:03;;;;;;;;;;;1.80;99.90;;;;;;4995806;28;19925;-67
2022/04/11 01:27:29;;;;;;;;;;;1.80;99.90;;;;;;5004050;28;19925;-66
2022/04/11 01:29:55;;;;;;;;;;;1.70;99.90;;;;;;5007371;28;20012;-66
2022/04/11 01:32:20;;;;;;;;;;;1.80;99.90;;;;;;5005585;28;20012;-68
2022/04/11 01:34:46;;;;;;;;;;;1.70;99.90;;;;;;5007513;28;20371;-67
2022/04/11 01:37:11;;;;;;;;;;;1.70;99.90;;;;;;5003050;28;19925;-67
2022/04/11 01:39:37;;;;;;;;;;;1.70;99.90;;;;;;5006759;28;19929;-67
2022/04/11 01:42:03;;;;;;;;;;;1.70;99.90;;;;;;4999823;28;19925;-67
2022/04/11 01:44:28;;;;;;;;;;;1.60;99.90;;;;;;4998096;28;19925;-67
2022/04/11 01:46:54;;;;;;;;;;;1.60;99.90;;;;;;5003952;28;20317;-67
2022/04/11 01:49:19;;;;;;;;;;;1.60;99.90;;;;;;5007506;28;20367;-67
2022/04/11 01:51:45;;;;;;;;;;;1.60;99.90;;;;;;4996310;28;19925;-68
2022/04/11 01:54:11;;;;;;;;;;;1.50;99.90;;;;;;4995014;28;19980;-67
2022/04/11 01:56:36;;;;;;;;;;;1.50;99.90;;;;;;4993331;28;19925;-66
2022/04/11 01:59:02;;;;;;;;;;;1.60;99.90;;;;;;4999434;28;19975;-66
2022/04/11 02:01:27;;;;;;;;;;;1.40;99.90;;;;;;4995296;28;19965;-67
2022/04/11 02:03:56;;;;;;;;;;;1.40;99.90;;;;;;5002098;28;19929;-67
2022/04/11 02:06:21;;;;;;;;;;;1.40;99.90;;;;;;5004737;28;19925;-67
2022/04/11 02:08:47;;;;;;;;;;;1.40;99.90;;;;;;4993961;28;20272;-67
2022/04/11 02:11:13;;;;;;;;;;;1.60;99.90;;;;;;5017053;28;19925;-67
2022/04/11 02:13:38;;;;;;;;;;;1.40;99.90;;;;;;4998693;28;20439;-65
2022/04/11 02:16:04;;;;;;;;;;;1.40;99.90;;;;;;4999988;28;19925;-66
2022/04/11 02:18:29;;;;;;;;;;;1.40;99.90;;;;;;5002338;28;19979;-66
2022/04/11 02:20:55;;;;;;;;;;;1.90;99.90;;;;;;5023681;28;19925;-67
2022/04/11 02:23:20;;;;;;;;;;;1.40;99.90;;;;;;4999261;28;19925;-66
2022/04/11 02:25:46;;;;;;;;;;;1.40;99.90;;;;;;4999740;28;19979;-66
2022/04/11 02:28:12;;;;;;;;;;;1.40;99.90;;;;;;4995165;28;19929;-67
2022/04/11 02:30:39;;;;;;;;;;;3.00;99.90;;;;;;5013683;28;19925;-66
2022/04/11 02:33:05;;;;;;;;;;;1.40;99.90;;;;;;5011031;28;19932;-66
2022/04/11 02:35:30;;;;;;;;;;;1.40;99.90;;;;;;4991851;28;19925;-67
2022/04/11 02:37:56;;;;;;;;;;;1.40;99.90;;;;;;5008722;28;19932;-66
2022/04/11 02:40:22;;;;;;;;;;;1.20;99.90;;;;;;4990230;28;19926;-67
2022/04/11 02:42:47;;;;;;;;;;;1.20;99.90;;;;;;5009650;28;19925;-67
2022/04/11 02:45:13;;;;;;;;;;;2.90;99.90;;;;;;4991785;28;20391;-66
2022/04/11 02:47:39;;;;;;;;;;;1.40;99.90;;;;;;5017217;28;20005;-66
2022/04/11 02:50:05;;;;;;;;;;;1.40;99.90;;;;;;5001904;28;20012;-67
2022/04/11 02:52:30;;;;;;;;;;;1.40;99.90;;;;;;5004716;28;19995;-66
2022/04/11 02:54:56;;;;;;;;;;;1.30;99.90;;;;;;5005314;28;20403;-67
2022/04/11 02:57:23;;;;;;;;;;;1.30;99.90;;;;;;4992513;28;20392;-67
2022/04/11 02:59:49;;;;;;;;;;;1.30;99.90;;;;;;4995720;28;19922;-68
2022/04/11 03:02:14;;;;;;;;;;;1.30;99.90;;;;;;5004150;28;19921;-66
2022/04/11 03:04:40;;;;;;;;;;;1.40;99.90;;;;;;5014401;28;20043;-66
2022/04/11 03:07:06;;;;;;;;;;;1.20;99.90;;;;;;5000833;28;20340;-68
2022/04/11 03:09:31;;;;;;;;;;;1.20;99.90;;;;;;5003538;28;19921;-67
2022/04/11 03:11:57;;;;;;;;;;;1.00;99.90;;;;;;5002091;28;19928;-67
2022/04/11 03:14:24;;;;;;;;;;;1.60;99.90;;;;;;5000088;28;19921;-67
2022/04/11 03:16:50;;;;;;;;;;;1.20;99.90;;;;;;5006611;28;20319;-67
2022/04/11 03:19:17;;;;;;;;;;;1.20;99.90;;;;;;5000765;28;19921;-67
2022/04/11 03:21:42;;;;;;;;;;;1.20;99.90;;;;;;5010763;28;20013;-67
2022/04/11 03:24:09;;;;;;;;;;;1.20;99.90;;;;;;5004132;28;20008;-69
2022/04/11 03:26:35;;;;;;;;;;;1.20;99.90;;;;;;5016427;28;20363;-66
2022/04/11 03:29:00;;;;;;;;;;;2.50;99.90;;;;;;5002740;28;19928;-67
2022/04/11 03:31:29;;;;;;;;;;;1.30;99.90;;;;;;5001357;28;19921;-67
2022/04/11 03:33:54;;;;;;;;;;;1.30;99.90;;;;;;5001678;28;19921;-67
2022/04/11 03:36:21;;;;;;;;;;;1.30;99.90;;;;;;5003297;28;19992;-67
2022/04/11 03:38:46;;;;;;;;;;;1.60;99.90;;;;;;4992624;28;19918;-66
2022/04/11 03:41:12;;;;;;;;;;;1.40;99.90;;;;;;5001181;28;19929;-66
2022/04/11 03:43:40;;;;;;;;;;;1.40;99.90;;;;;;4996405;28;19943;-66
2022/04/11 03:46:05;;;;;;;;;;;1.50;99.90;;;;;;5008545;28;20373;-67
2022/04/11 03:48:31;;;;;;;;;;;1.60;99.90;;;;;;5009053;28;20441;-67
2022/04/11 03:50:57;;;;;;;;;;;1.60;99.90;;;;;;5013997;28;19922;-67
2022/04/11 03:53:22;;;;;;;;;;;1.60;99.90;;;;;;4999013;28;20056;-66
2022/04/11 03:55:48;;;;;;;;;;;1.70;99.90;;;;;;5008886;28;20012;-67
2022/04/11 03:58:13;;;;;;;;;;;1.70;99.90;;;;;;5001816;28;19983;-67
2022/04/11 04:00:39;;;;;;;;;;;1.90;99.90;;;;;;5010098;28;20449;-67
2022/04/11 04:03:08;;;;;;;;;;;2.60;99.90;;;;;;5023365;28;20340;-66
2022/04/11 04:05:39;;;;;;;;;;;1.80;99.90;;;;;;5012877;28;19925;-66
2022/04/11 04:08:04;;;;;;;;;;;1.90;99.90;;;;;;5007758;28;19922;-67
2022/04/11 04:10:30;;;;;;;;;;;1.90;99.90;;;;;;5005067;28;20048;-66
2022/04/11 04:12:58;;;;;;;;;;;2.00;99.90;;;;;;5011407;28;19929;-67
2022/04/11 04:15:24;;;;;;;;;;;2.00;99.90;;;;;;5011803;28;19929;-67
2022/04/11 04:17:53;;;;;;;;;;;2.00;99.90;;;;;;5005053;28;19922;-67
2022/04/11 04:20:18;;;;;;;;;;;2.10;99.90;;;;;;5003711;28;20280;-67
2022/04/11 04:22:44;;;;;;;;;;;2.10;99.90;;;;;;5004597;28;19921;-66
2022/04/11 04:25:11;;;;;;;;;;;2.20;99.90;;;;;;5027515;28;20157;-66
2022/04/11 04:27:37;;;;;;;;;;;2.10;99.90;;;;;;5005945;28;19928;-67
2022/04/11 04:30:03;;;;;;;;;;;2.50;99.90;;;;;;5001306;28;20016;-67
2022/04/11 04:32:28;;;;;;;;;;;2.20;99.90;;;;;;5006116;28;19921;-66
2022/04/11 04:34:54;;;;;;;;;;;2.20;99.90;;;;;;5011309;28;20370;-67
2022/04/11 04:37:19;;;;;;;;;;;3.90;99.90;;;;;;5022181;28;20004;-67
2022/04/11 04:39:48;;;;;;;;;;;2.30;99.90;;;;;;5001604;28;20084;-66
2022/04/11 04:42:23;;;;;;;;;;;2.30;99.90;;;;;;5006488;28;20427;-67
2022/04/11 04:44:48;;;;;;;;;;;2.30;99.90;;;;;;5008201;28;19929;-66
2022/04/11 04:47:17;;;;;;;;;;;2.40;99.90;;;;;;5002498;28;19921;-67
2022/04/11 04:49:44;;;;;;;;;;;2.40;99.90;;;;;;5005147;28;19922;-67
2022/04/11 04:52:11;;;;;;;;;;;2.40;99.90;;;;;;4998990;28;19976;-66
2022/04/11 04:54:37;;;;;;;;;;;2.40;99.90;;;;;;5014841;28;19921;-66
2022/04/11 04:57:03;;;;;;;;;;;2.40;99.90;;;;;;5003402;28;20012;-66
2022/04/11 04:59:28;;;;;;;;;;;2.50;99.90;;;;;;5003473;28;19925;-66
2022/04/11 05:01:57;;;;;;;;;;;2.50;99.90;;;;;;5004283;28;19921;-66
2022/04/11 05:04:22;;;;;;;;;;;4.30;99.90;;;;;;5008774;28;19995;-66
2022/04/11 05:06:48;;;;;;;;;;;2.60;99.90;;;;;;5004376;28;20383;-66
2022/04/11 05:09:13;;;;;;;;;;;2.60;99.90;;;;;;5007669;28;19922;-66
2022/04/11 05:11:39;;;;;;;;;;;2.60;99.90;;;;;;4997671;28;19984;-66
2022/04/11 05:14:08;;;;;;;;;;;2.70;99.90;;;;;;5011119;28;19928;-66
2022/04/11 05:16:33;;;;;;;;;;;3.00;99.90;;;;;;5001897;28;19922;-66
2022/04/11 05:18:59;;;;;;;;;;;2.70;99.90;;;;;;5014271;28;19928;-66
2022/04/11 05:21:24;;;;;;;;;;;2.70;99.90;;;;;;5006260;28;19925;-67
2022/04/11 05:23:50;;;;;;;;;;;3.10;99.90;;;;;;5002387;28;19922;-67
2022/04/11 05:26:15;;;;;;;;;;;2.90;99.90;;;;;;5001541;28;19928;-66
2022/04/11 05:28:41;;;;;;;;;;;2.90;99.90;;;;;;5004955;28;20367;-66
2022/04/11 05:31:07;;;;;;;;;;;2.90;99.90;;;;;;5010118;28;19966;-66
2022/04/11 05:33:32;;;;;;;;;;;3.00;99.90;;;;;;5013573;28;19964;-66
2022/04/11 05:35:58;;;;;;;;;;;3.00;99.90;;;;;;5011337;28;20036;-66
2022/04/11 05:38:27;;;;;;;;;;;3.10;99.90;;;;;;5004126;28;19921;-65
2022/04/11 05:40:52;;;;;;;;;;;3.10;99.90;;;;;;5006154;28;20391;-66
2022/04/11 05:43:18;;;;;;;;;;;3.20;99.90;;;;;;5006516;28;19933;-66
2022/04/11 05:45:46;;;;;;;;;;;3.20;99.90;;;;;;5003377;28;19925;-66
2022/04/11 05:48:12;;;;;;;;;;;3.30;99.90;;;;;;4998368;28;19931;-67
2022/04/11 05:50:37;;;;;;;;;;;3.30;99.90;;;;;;5001433;28;20005;-67
2022/04/11 05:53:03;;;;;;;;;;;3.30;99.90;;;;;;5013620;28;19929;-65
2022/04/11 05:55:29;;;;;;;;;;;3.40;99.90;;;;;;5008753;28;19922;-65
2022/04/11 05:57:57;;;;;;;;;;;3.20;99.90;;;;;;4992840;28;19922;-66
2022/04/11 06:00:22;;;;;;;;;;;3.40;99.90;;;;;;5000202;28;19929;-66
2022/04/11 06:02:48;;;;;;;;;;;3.50;99.90;;;;;;4994853;28;19922;-66
2022/04/11 06:05:14;;;;;;;;;;;3.50;99.90;;;;;;5012004;28;19926;-66
2022/04/11 06:07:40;;;;;;;;;;;3.50;99.90;;;;;;5006033;28;19929;-65
2022/04/11 06:10:08;;;;;;;;;;;3.60;99.90;;;;;;5001218;28;19921;-67
2022/04/11 06:12:34;;;;;;;;;;;3.60;99.90;;;;;;5011433;28;19921;-66
2022/04/11 06:15:00;;;;;;;;;;;3.80;99.90;;;;;;5010575;28;20288;-67
2022/04/11 06:17:26;;;;;;;;;;;4.30;99.90;;;;;;4999399;28;20004;-67
2022/04/11 06:19:56;;;;;;;;;;;3.70;99.90;;;;;;5006199;28;19925;-66
2022/04/11 06:22:22;;;;;;;;;;;3.80;99.90;;;;;;4986856;28;20269;-67
2022/04/11 06:24:48;;;;;;;;;;;4.30;99.90;;;;;;5001070;28;19922;-67
2022/04/11 06:27:14;;;;;;;;;;;3.80;99.90;;;;;;5009697;28;19929;-67
2022/04/11 06:29:40;;;;;;;;;;;3.90;99.90;;;;;;5011156;28;20059;-67
2022/04/11 06:32:06;;;;;;;;;;;3.80;99.90;;;;;;5001164;28;19976;-67
2022/04/11 06:34:31;;;;;;;;;;;4.00;99.90;;;;;;5006423;28;19925;-66
2022/04/11 06:36:57;;;;;;;;;;;4.10;99.90;;;;;;5000674;28;19925;-67
2022/04/11 06:39:22;;;;;;;;;;;4.20;99.90;;;;;;5002029;28;19928;-66
2022/04/11 06:41:48;;;;;;;;;;;4.20;99.90;;;;;;5006359;28;20048;-66
2022/04/11 06:44:13;;;;;;;;;;;4.30;99.90;;;;;;5000157;28;20012;-66
2022/04/11 06:46:39;;;;;;;;;;;4.60;99.90;;;;;;4997277;28;19929;-67
2022/04/11 06:49:04;;;;;;;;;;;4.50;99.90;;;;;;4998862;28;19921;-65
2022/04/11 06:51:30;;;;;;;;;;;4.60;99.90;;;;;;4998460;28;19933;-65
2022/04/11 06:53:55;;;;;;;;;;;4.60;99.90;;;;;;5002389;28;20397;-65
2022/04/11 06:56:21;;;;;;;;;;;4.60;99.90;;;;;;5007905;28;19976;-66
2022/04/11 06:58:47;;;;;;;;;;;4.80;99.90;;;;;;5004919;28;19921;-66
2022/04/11 07:01:13;;;;;;;;;;;4.90;99.90;;;;;;4995415;28;19921;-65
2022/04/11 07:03:39;;;;;;;;;;;5.30;99.90;;;;;;5023899;28;19929;-66
2022/04/11 07:06:07;;;;;;;;;;;5.10;99.90;;;;;;5026022;28;19921;-66
2022/04/11 07:08:33;;;;;;;;;;;5.80;99.90;;;;;;5010481;28;19984;-66
2022/04/11 07:10:59;;;;;;;;;;;5.30;99.90;;;;;;5002487;28;19944;-66
2022/04/11 07:13:24;;;;;;;;;;;5.40;99.90;;;;;;5003231;28;19995;-65
2022/04/11 07:15:50;;;;;;;;;;;5.50;99.90;;;;;;5012045;28;19948;-65
2022/04/11 07:18:16;;;;;;;;;;;5.70;99.90;;;;;;5012271;28;19929;-66
2022/04/11 07:20:41;;;;;;;;;;;5.70;99.90;;;;;;5012797;28;19921;-65
2022/04/11 07:23:07;;;;;;;;;;;7.40;99.90;;;;;;5016051;28;19975;-65
2022/04/11 07:25:33;;;;;;;;;;;6.00;99.90;;;;;;5013658;28;19922;-66
2022/04/11 07:27:58;;;;;;;;;;;6.10;99.90;;;;;;5007284;28;19925;-66
2022/04/11 07:30:24;;;;;;;;;;;6.20;99.90;;;;;;4996154;28;20085;-65
2022/04/11 07:32:50;;;;;;;;;;;6.30;99.90;;;;;;4996051;28;19921;-67
2022/04/11 07:35:16;;;;;;;;;;;6.40;99.90;;;;;;4995497;28;19918;-66
2022/04/11 07:37:44;;;;;;;;;;;8.10;99.90;;;;;;5007787;28;19928;-66
2022/04/11 07:40:10;;;;;;;;;;;6.60;99.90;;;;;;5013977;28;20310;-65
2022/04/11 07:42:36;;;;;;;;;;;6.70;99.90;;;;;;5014101;28;20390;-66
2022/04/11 07:45:02;;;;;;;;;;;6.80;99.90;;;;;;5014671;28;19929;-66
2022/04/11 07:47:27;;;;;;;;;;;6.90;99.90;;;;;;5013422;28;20354;-66
2022/04/11 07:49:53;;;;;;;;;;;7.00;99.90;;;;;;5014274;28;19921;-66
2022/04/11 07:52:18;;;;;;;;;;;7.10;99.90;;;;;;5013781;28;19921;-65
2022/04/11 07:54:44;;;;;;;;;;;7.80;99.90;;;;;;5014269;28;19928;-66
2022/04/11 07:57:09;;;;;;;;;;;7.30;99.90;;;;;;5016549;28;20287;-69
2022/04/11 07:59:35;;;;;;;;;;;7.40;99.90;;;;;;4998451;28;20408;-66
2022/04/11 08:02:01;;;;;;;;;;;7.50;99.90;;;;;;5015049;28;19985;-65
2022/04/11 08:04:27;;;;;;;;;;;7.60;99.90;;;;;;5011804;28;19921;-66
2022/04/11 08:06:55;;;;;;;;;;;7.60;99.90;;;;;;5014079;28;19921;-65
2022/04/11 08:09:21;;;;;;;;;;;7.70;99.90;;;;;;5015686;28;20020;-65
2022/04/11 08:11:48;;;;;;;;;;;7.90;99.90;;;;;;5013596;28;20012;-66
2022/04/11 08:14:13;;;;;;;;;;;8.10;99.90;;;;;;5015253;28;19921;-66
2022/04/11 08:16:39;;;;;;;;;;;8.10;99.90;;;;;;5015463;28;19921;-66
2022/04/11 08:19:04;;;;;;;;;;;8.20;99.90;;;;;;5005317;28;19921;-65
2022/04/11 08:21:30;;;;;;;;;;;8.20;99.90;;;;;;5014256;28;19928;-67
2022/04/11 08:23:55;;;;;;;;;;;8.40;99.90;;;;;;5015322;28;19922;-65
2022/04/11 08:26:21;;;;;;;;;;;8.50;99.90;;;;;;5014911;28;19941;-68
2022/04/11 08:28:47;;;;;;;;;;;8.80;99.90;;;;;;5013352;28;20337;-67
2022/04/11 08:31:12;;;;;;;;;;;9.00;99.90;;;;;;5013080;28;20364;-67
2022/04/11 08:33:38;;;;;;;;;;;9.10;99.90;;;;;;5004032;28;20386;-66
2022/04/11 08:36:03;;;;;;;;;;;9.80;99.90;;;;;;5004719;28;19944;-67
2022/04/11 08:38:29;;;;;;;;;;;9.60;99.90;;;;;;5013680;28;20369;-65
2022/04/11 08:40:59;;;;;;;;;;;9.80;99.90;;;;;;5012275;28;19976;-65
2022/04/11 08:43:25;;;;;;;;;;;10.10;99.90;;;;;;5012499;28;19925;-65
2022/04/11 08:45:54;;;;;;;;;;;10.30;99.90;;;;;;5011664;28;20323;-66
2022/04/11 08:48:23;;;;;;;;;;;10.40;99.90;;;;;;5012514;28;20024;-66
2022/04/11 08:50:49;;;;;;;;;;;10.60;99.90;;;;;;5014101;28;20013;-66
2022/04/11 08:53:19;;;;;;;;;;;10.70;99.90;;;;;;5028438;28;20280;-66
2022/04/11 08:55:45;;;;;;;;;;;11.80;99.90;;;;;;5013601;28;19929;-64
2022/04/11 08:58:11;;;;;;;;;;;11.10;99.90;;;;;;5014203;28;19928;-67
2022/04/11 09:00:36;;;;;;;;;;;11.20;99.90;;;;;;5012776;28;19922;-66
2022/04/11 09:03:03;;;;;;;;;;;11.30;99.90;;;;;;5012549;28;19929;-66
2022/04/11 09:05:29;;;;;;;;;;;11.40;99.60;;;;;;5013824;28;19972;-65
2022/04/11 09:07:55;;;;;;;;;;;11.60;99.90;;;;;;5008095;28;19930;-67
2022/04/11 09:10:21;;;;;;;;;;;11.60;98.00;;;;;;4994030;28;19925;-66
2022/04/11 09:12:47;;;;;;;;;;;12.00;98.10;;;;;;5009301;28;20491;-65
2022/04/11 09:15:16;;;;;;;;;;;11.70;97.60;;;;;;5007708;28;20257;-65
2022/04/11 09:17:42;;;;;;;;;;;11.60;97.40;;;;;;5013307;28;19944;-65
2022/04/11 09:20:12;;;;;;;;;;;11.70;99.30;;;;;;5013967;28;19928;-66
2022/04/11 09:22:38;;;;;;;;;;;11.70;97.30;;;;;;5012996;28;19936;-66
2022/04/11 09:25:16;;;;;;;;;;;11.70;97.20;;;;;;5012799;28;19929;-65
2022/04/11 09:27:42;;;;;;;;;;;11.70;95.60;;;;;;4995888;28;19922;-66
2022/04/11 09:30:21;;;;;;;;;;;12.40;94.10;;;;;;5011272;28;19928;-66
2022/04/11 09:32:52;;;;;;;;;;;11.60;94.40;;;;;;5003339;28;19922;-65
2022/04/11 09:35:22;;;;;;;;;;;11.70;95.30;;;;;;5012266;28;19922;-66
2022/04/11 09:37:47;;;;;;;;;;;11.80;93.60;;;;;;5003367;28;19925;-66
2022/04/11 09:40:20;;;;;;;;;;;12.00;94.40;;;;;;5000106;28;20013;-66
2022/04/11 09:42:46;;;;;;;;;;;12.10;94.90;;;;;;5012926;28;19921;-67
2022/04/11 09:45:16;;;;;;;;;;;12.30;94.30;;;;;;5010000;28;20329;-66
2022/04/11 09:47:57;;;;;;;;;;;12.60;93.40;;;;;;5005411;28;19983;-66
2022/04/11 09:50:23;;;;;;;;;;;12.40;92.80;;;;;;5022302;28;19921;-65
2022/04/11 09:52:49;;;;;;;;;;;12.50;93.00;;;;;;5012473;28;19922;-66
2022/04/11 09:55:14;;;;;;;;;;;12.60;93.30;;;;;;5009279;28;20340;-66
2022/04/11 09:57:40;;;;;;;;;;;12.80;92.50;;;;;;5010022;28;19928;-66
2022/04/11 10:00:06;;;;;;;;;;;13.20;91.50;;;;;;5007854;28;19921;-67
2022/04/11 10:02:34;;;;;;;;;;;12.90;90.50;;;;;;5008967;28;19929;-66
2022/04/11 10:05:00;;;;;;;;;;;13.00;91.50;;;;;;5009459;28;19925;-65
2022/04/11 10:07:25;;;;;;;;;;;13.20;89.50;;;;;;5008143;28;19925;-67
2022/04/11 10:09:52;;;;;;;;;;;13.30;90.10;;;;;;5012793;28;19921;-65
2022/04/11 10:12:17;;;;;;;;;;;13.40;90.60;;;;;;4994606;28;20055;-66
2022/04/11 10:14:45;;;;;;;;;;;13.50;84.80;;;;;;4997237;28;20007;-67
2022/04/11 10:17:11;;;;;;;;;;;13.70;88.40;;;;;;4990335;28;19922;-67
2022/04/11 10:19:38;;;;;;;;;;;13.90;86.30;;;;;;4999075;28;19944;-65
2022/04/11 10:22:04;;;;;;;;;;;14.00;88.90;;;;;;5012096;28;19975;-65
2022/04/11 10:24:33;;;;;;;;;;;14.00;86.60;;;;;;5010329;28;19956;-67
2022/04/11 10:27:14;;;;;;;;;;;14.10;84.60;;;;;;5006600;28;19967;-67
2022/04/11 10:29:40;;;;;;;;;;;14.30;82.50;;;;;;5009911;28;19928;-67
2022/04/11 10:32:09;;;;;;;;;;;14.60;82.70;;;;;;4989626;28;19976;-68
2022/04/11 10:34:45;;;;;;;;;;;14.90;81.30;;;;;;4994151;28;20296;-67
2022/04/11 10:37:11;;;;;;;;;;;15.10;81.40;;;;;;5004628;28;20426;-66
2022/04/11 10:39:37;;;;;;;;;;;14.80;73.70;;;;;;5008121;28;20004;-66
2022/04/11 10:42:06;;;;;;;;;;;15.20;77.60;;;;;;5008253;28;19971;-66
2022/04/11 10:44:37;;;;;;;;;;;15.20;69.20;;;;;;4995150;28;20394;-66
2022/04/11 10:47:12;;;;;;;;;;;15.10;75.30;;;;;;4997844;28;20319;-66
2022/04/11 10:50:07;;;;;;;;;;;15.10;72.00;;;;;;4993892;28;19925;-66
2022/04/11 10:52:35;;;;;;;;;;;15.20;74.70;;;;;;5021224;28;19921;-66
2022/04/11 10:55:06;;;;;;;;;;;15.20;73.80;;;;;;4992023;28;19969;-66
2022/04/11 10:57:45;;;;;;;;;;;15.40;73.60;;;;;;5006406;28;20038;-68
2022/04/11 11:00:15;;;;;;;;;;;15.60;72.90;;;;;;5007409;28;20268;-66
2022/04/11 11:02:49;;;;;;;;;;;15.80;73.30;;;;;;5017183;28;19929;-66
2022/04/11 11:05:25;;;;;;;;;;;15.90;69.80;;;;;;5006100;28;19926;-66
2022/04/11 11:08:03;;;;;;;;;;;16.00;70.30;;;;;;5010265;28;19921;-65
2022/04/11 11:10:38;;;;;;;;;;;16.30;71.10;;;;;;5012448;28;20300;-65
2022/04/11 11:13:26;;;;;;;;;;;16.50;70.60;;;;;;4999474;28;19928;-65
2022/04/11 11:15:53;;;;;;;;;;;16.50;66.60;;;;;;5011334;28;19921;-67
2022/04/11 11:18:19;;;;;;;;;;;16.60;68.20;;;;;;5022822;28;19972;-66
2022/04/11 11:21:03;;;;;;;;;;;16.70;63.90;;;;;;5007052;28;19972;-66
2022/04/11 11:23:31;;;;;;;;;;;16.40;64.20;;;;;;5005702;28;19927;-66
2022/04/11 11:26:09;;;;;;;;;;;16.30;62.00;;;;;;5009742;28;19930;-67
2022/04/11 11:28:35;;;;;;;;;;;16.50;65.40;;;;;;4993937;28;19922;-65
2022/04/11 11:31:01;;;;;;;;;;;16.80;67.60;;;;;;4992722;28;20418;-67
2022/04/11 11:33:30;;;;;;;;;;;17.20;63.20;;;;;;4992455;28;19928;-67
2022/04/11 11:35:56;;;;;;;;;;;17.40;63.40;;;;;;5008811;28;19926;-66
2022/04/11 11:38:26;;;;;;;;;;;16.90;61.50;;;;;;4995048;28;19929;-66
2022/04/11 11:40:53;;;;;;;;;;;16.90;62.50;;;;;;5010279;28;19918;-66
2022/04/11 11:43:19;;;;;;;;;;;16.70;61.20;;;;;;5011363;28;20414;-67
2022/04/11 11:45:45;;;;;;;;;;;16.90;61.60;;;;;;4993761;28;20044;-66
2022/04/11 11:48:24;;;;;;;;;;;16.90;62.30;;;;;;4990459;28;19929;-66
2022/04/11 11:50:50;;;;;;;;;;;17.00;64.30;;;;;;5011614;28;19999;-66
2022/04/11 11:53:16;;;;;;;;;;;16.90;61.40;;;;;;5006930;28;19925;-65
2022/04/11 11:55:55;;;;;;;;;;;17.00;61.10;;;;;;4993930;28;20067;-66
2022/04/11 11:58:21;;;;;;;;;;;17.00;62.40;;;;;;5010691;28;19991;-67
2022/04/11 12:00:48;;;;;;;;;;;17.10;64.90;;;;;;5009659;28;20319;-65
2022/04/11 12:06:00;;;;;;;;;;;17.10;62.70;;;;;;5018785;28;20000;-67
2022/04/11 12:08:30;;;;;;;;;;;16.90;61.30;;;;;;5015426;28;19968;-66
2022/04/11 12:10:57;;;;;;;;;;;17.20;60.40;;;;;;5010776;28;19930;-67
2022/04/11 12:13:23;;;;;;;;;;;17.40;60.70;;;;;;4998030;28;19921;-69
2022/04/11 12:15:50;;;;;;;;;;;17.60;62.80;;;;;;5010669;28;19921;-67
2022/04/11 12:18:15;;;;;;;;;;;17.50;59.20;;;;;;5000073;28;19929;-66
2022/04/11 12:20:42;;;;;;;;;;;17.70;58.60;;;;;;5009975;28;19922;-66
2022/04/11 12:23:10;;;;;;;;;;;17.50;59.60;;;;;;5015039;28;19948;-66
2022/04/11 12:25:37;;;;;;;;;;;17.40;58.80;;;;;;5009748;28;19973;-66
2022/04/11 12:28:22;;;;;;;;;;;17.50;60.50;;;;;;5004114;28;19921;-66
2022/04/11 12:31:02;;;;;;;;;;;17.80;58.40;;;;;;5008710;28;20024;-67
2022/04/11 12:33:48;;;;;;;;;;;18.20;58.20;;;;;;5001765;28;19932;-67
2022/04/11 12:36:26;;;;;;;;;;;18.00;57.60;;;;;;5011314;28;19928;-67
2022/04/11 12:39:11;;;;;;;;;;;18.10;56.40;;;;;;5012748;28;20501;-67
2022/04/11 12:41:40;;;;;;;;;;;18.20;55.90;;;;;;5015021;28;19945;-68
2022/04/11 12:44:12;;;;;;;;;;;18.00;57.40;;;;;;5002127;28;19941;-66
2022/04/11 12:46:42;;;;;;;;;;;18.40;55.90;;;;;;5013275;28;19921;-66
2022/04/11 12:49:09;;;;;;;;;;;18.80;56.70;;;;;;5005356;28;19921;-67
2022/04/11 12:51:35;;;;;;;;;;;18.80;55.70;;;;;;5009009;28;20004;-67
2022/04/11 12:54:11;;;;;;;;;;;19.10;56.30;;;;;;5014972;28;20319;-68
2022/04/11 12:56:41;;;;;;;;;;;19.40;55.50;;;;;;5011330;28;20402;-68
2022/04/11 12:59:07;;;;;;;;;;;19.00;53.60;;;;;;5029016;28;20341;-66
2022/04/11 13:01:51;;;;;;;;;;;18.90;54.80;;;;;;5009034;28;19922;-66
2022/04/11 13:04:17;;;;;;;;;;;18.40;53.20;;;;;;5009974;28;19929;-67
2022/04/11 13:06:43;;;;;;;;;;;17.70;54.30;;;;;;5006915;28;19937;-68
2022/04/11 13:09:08;;;;;;;;;;;17.10;55.10;;;;;;5010057;28;20084;-68
2022/04/11 13:11:40;;;;;;;;;;;16.90;56.70;;;;;;5011155;28;19929;-66
2022/04/11 13:14:06;;;;;;;;;;;17.20;57.00;;;;;;5008541;28;19925;-67
2022/04/11 13:19:16;;;;;;;;;;;17.40;55.40;;;;;;5010094;28;19929;-66
2022/04/11 13:21:41;;;;;;;;;;;17.50;55.70;;;;;;5003417;28;19922;-68
2022/04/11 13:24:07;;;;;;;;;;;17.90;55.20;;;;;;4995722;28;20379;-68
2022/04/11 13:26:33;;;;;;;;;;;18.10;55.10;;;;;;5013586;28;20299;-67
2022/04/11 13:28:58;;;;;;;;;;;18.20;55.40;;;;;;5014410;28;20401;-66
2022/04/11 13:31:24;;;;;;;;;;;18.40;54.10;;;;;;5008736;28;19921;-66
2022/04/11 13:33:49;;;;;;;;;;;18.10;52.80;;;;;;5013060;28;20334;-69
2022/04/11 13:36:15;;;;;;;;;;;17.40;52.40;;;;;;5010180;28;19928;-66
2022/04/11 13:38:40;;;;;;;;;;;17.30;55.50;;;;;;5004122;28;19967;-68
2022/04/11 13:41:06;;;;;;;;;;;17.40;54.50;;;;;;5024187;28;19921;-67
2022/04/11 13:43:32;;;;;;;;;;;17.40;54.70;;;;;;5017850;28;20406;-68
2022/04/11 13:45:57;;;;;;;;;;;17.60;54.60;;;;;;5000186;28;19925;-67
2022/04/11 13:48:23;;;;;;;;;;;17.80;54.80;;;;;;5008534;28;20387;-69
2022/04/11 13:50:49;;;;;;;;;;;18.10;54.80;;;;;;5002549;28;19929;-69
2022/04/11 13:53:14;;;;;;;;;;;18.20;54.30;;;;;;4999317;28;19926;-67
2022/04/11 13:55:40;;;;;;;;;;;18.20;53.60;;;;;;4983701;28;19973;-67
2022/04/11 13:58:05;;;;;;;;;;;17.90;53.60;;;;;;5001843;28;19940;-67
2022/04/11 14:00:31;;;;;;;;;;;17.40;53.30;;;;;;5006149;28;21274;-67
2022/04/11 14:02:56;;;;;;;;;;;16.80;54.70;;;;;;4997526;28;20479;-67
2022/04/11 14:05:22;;;;;;;;;;;16.20;56.40;;;;;;4999633;28;20004;-67
2022/04/11 14:07:49;;;;;;;;;;;15.50;57.10;;;;;;5008862;28;19933;-67
2022/04/11 14:10:15;;;;;;;;;;;15.10;57.80;;;;;;4997229;28;19925;-66
2022/04/11 14:12:41;;;;;;;;;;;14.80;58.20;;;;;;4992417;28;20423;-66
2022/04/11 14:15:07;;;;;;;;;;;14.40;59.50;;;;;;5015710;28;20017;-68
2022/04/11 14:17:32;;;;;;;;;;;13.90;60.10;;;;;;4995825;28;19972;-66
2022/04/11 14:19:58;;;;;;;;;;;13.80;61.30;;;;;;4998524;28;19980;-66
2022/04/11 14:22:23;;;;;;;;;;;13.60;61.50;;;;;;4997027;28;19926;-68
2022/04/11 14:24:49;;;;;;;;;;;13.50;62.40;;;;;;5001340;28;20401;-68
2022/04/11 14:27:14;;;;;;;;;;;13.50;62.40;;;;;;5019186;28;20368;-66
2022/04/11 14:29:42;;;;;;;;;;;13.30;62.40;;;;;;4994308;28;19926;-68
2022/04/11 14:32:07;;;;;;;;;;;13.30;63.00;;;;;;5003538;28;19929;-66